Atlanta, GA (31141)

2:26 AM EDT on March 29, 2015 (GMT -0400)
Georgia Tech (Midtown) | | Change Station
CLOSE
Current Station
Personal Weather Station
Location: Atlanta, GA
Elevation: 935 ft
Nearby Weather Stations
Active Advisory: Freeze Warning

Elev 935 ft 33.78 °N, 84.40 °W | Updated 6 seconds ago

Clear
Clear
37.9 °F
Feels Like 38 °F
N
0.0
Wind Variable Wind from West
Gusts 0.0 mph

Today
High -- | Low -- °F
--% Chance of Precip.
Yesterday
High -- | Low -- °F
Precip. -- in
7:29 AM 7:55 PM
Waxing Gibbous, 69% visible
Pressure 30.30 in
Visibility 10.0 miles
Clouds Clear
Windchill 38 °F
Dew Point 17 °F
Humidity 43%
Rainfall 0.00 in
Snow Depth Not available.
UV 0 out of 12
Pollen 10.30 out of 12
Air Quality Not available.
Flu Activity Not available.
METAR KFTY 290553Z 32004KT 10SM CLR 02/M09 A3029 RMK AO2 SLP261 T00221089 10083 20022 51014

More Conditions Fewer Conditions

Pressure 30.30 in
Visibility 10.0 miles
Clouds Clear
Windchill 38 °F
Dew Point 17 °F
Humidity 43%
Rainfall 0.00 in
Snow Depth Not available.
UV 0 out of 12
Pollen 10.30 out of 12
Air Quality Not available.
Flu Activity Not available.
METAR KFTY 290553Z 32004KT 10SM CLR 02/M09 A3029 RMK AO2 SLP261 T00221089 10083 20022 51014

More Conditions Fewer Conditions

10-Day Weather Forecast

Almanac

Astronomy

Mar. 29, 2015 Rise Set
Actual Time
Civil Twilight
Nautical Twilight
Astronomical Twilight
Moon
Length of Visible Light
Length of Day
Tomorrow will be .
, % of the Moon is Illuminated

Today's Extremes

State Highs State Lows

Community

WunderPhotos

Upload Photos

1,809,186 photos uploaded!

WunderBlogs® & News

Nearby

Air Quality

  Air Quality AQ Index Pollutant
Not available.

Snow Depth

Station Depth Elevation

Earthquake Activity

City Distance Mag. Time & Date
Minimum magnitude displayed is 2.5.

Coastal Water Temperatures

Place Temperature

Stations

Nearby Weather Stations

Station Location Temp. Windchill Dew Point Humidity Wind Precip. Elev Updated Type
                   
Freeze Warning
Statement as of 9:53 PM EDT on March 28, 2015

... Freeze warning remains in effect until 10 am EDT Sunday...

* locations... north of a line from Hamilton to Macon and
Louisville.

* Temperatures... mid 20s to lower 30s... except low to mid 20s in the
mountains.

* Timing... midnight to 8 am Sunday morning.

* Impacts... freezing temperatures could damage tender vegetation.

Precautionary/preparedness actions...

A freeze warning means freezing temperatures are forecast to threaten
outdoor plants. Those with agricultural interests in the warned area
are advised to harvest or protect tender vegetation.